Time;durP1;ratioP1;P1;durP2;ratioP2;P2;SDS_P1;SDS_P2;PMS_P1;PMS_P2;Temp;Humidity;BMP_temperature;BMP_pressure;BME280_temperature;BME280_humidity;BME280_pressure;Samples;Min_cycle;Max_cycle;Signal;HPM_P1;HPM_P2
2021/06/23 00:00:32;;;;;;;3.80;3.40;;;15.80;99.90;;;;;;4889818;29;20835;-77
2021/06/23 00:02:58;;;;;;;3.57;3.27;;;15.80;99.90;;;;;;4906152;29;20401;-79
2021/06/23 00:05:24;;;;;;;3.47;3.17;;;15.80;99.90;;;;;;4889880;29;20403;-76
2021/06/23 00:07:50;;;;;;;3.90;3.60;;;15.80;99.90;;;;;;4879447;29;20421;-77
2021/06/23 00:10:16;;;;;;;3.80;3.50;;;15.80;99.90;;;;;;4891772;29;20406;-76
2021/06/23 00:12:42;;;;;;;3.50;3.20;;;15.80;99.90;;;;;;4880337;29;20908;-81
2021/06/23 00:15:08;;;;;;;3.40;3.10;;;15.70;99.90;;;;;;4892891;29;20423;-76
2021/06/23 00:17:34;;;;;;;4.20;3.80;;;15.70;99.90;;;;;;4891189;29;20401;-80
2021/06/23 00:20:00;;;;;;;3.83;3.53;;;15.70;99.90;;;;;;4905557;29;20406;-79
2021/06/23 00:22:25;;;;;;;3.90;3.60;;;15.70;99.90;;;;;;4889260;29;20404;-78
2021/06/23 00:24:51;;;;;;;3.92;3.35;;;15.60;99.90;;;;;;4890411;29;20407;-79
2021/06/23 00:27:17;;;;;;;4.87;3.80;;;15.60;99.90;;;;;;4874644;29;20418;-77
2021/06/23 00:29:43;;;;;;;4.22;3.22;;;15.50;99.90;;;;;;4891312;29;20460;-79
2021/06/23 00:32:16;;;;;;;3.92;3.10;;;15.50;99.90;;;;;;4892894;29;20401;-83
2021/06/23 00:34:42;;;;;;;3.78;3.38;;;15.60;99.90;;;;;;4892099;29;20451;-79
2021/06/23 00:37:07;;;;;;;3.50;3.20;;;15.60;99.90;;;;;;4889038;29;20463;-82
2021/06/23 00:39:33;;;;;;;2.90;2.70;;;15.60;99.90;;;;;;4898003;29;20411;-77
2021/06/23 00:41:59;;;;;;;3.60;3.10;;;15.50;99.90;;;;;;4874894;29;20486;-79
2021/06/23 00:44:24;;;;;;;3.27;2.97;;;15.50;99.90;;;;;;4889006;29;20410;-76
2021/06/23 00:46:51;;;;;;;3.03;2.72;;;15.50;99.90;;;;;;4900272;29;20628;-82
2021/06/23 00:49:17;;;;;;;3.42;3.13;;;15.50;99.90;;;;;;4895651;29;20413;-77
2021/06/23 00:51:55;;;;;;;3.42;3.13;;;15.50;99.90;;;;;;4880323;29;20412;-76
2021/06/23 00:54:36;;;;;;;3.30;3.10;;;15.60;99.90;;;;;;4874853;29;20418;-79
2021/06/23 00:57:06;;;;;;;2.90;2.70;;;15.60;99.90;;;;;;4884906;29;20799;-79
2021/06/23 00:59:32;;;;;;;3.45;3.15;;;15.60;99.90;;;;;;4891674;29;20405;-81
2021/06/23 01:01:58;;;;;;;4.17;3.67;;;15.60;99.90;;;;;;4907236;29;20445;-79
2021/06/23 01:04:24;;;;;;;3.05;2.85;;;15.60;99.90;;;;;;4891450;29;20413;-77
2021/06/23 01:06:50;;;;;;;4.03;3.67;;;15.60;99.90;;;;;;4889317;29;20482;-77
2021/06/23 01:09:16;;;;;;;4.35;3.88;;;15.60;99.90;;;;;;4905921;29;20401;-79
2021/06/23 01:12:08;;;;;;;4.40;4.00;;;15.60;99.90;;;;;;4880588;29;20484;-77
2021/06/23 01:14:33;;;;;;;4.10;3.70;;;15.60;99.90;;;;;;4905749;29;20425;-79
2021/06/23 01:17:00;;;;;;;3.45;3.15;;;15.70;99.90;;;;;;4872686;29;20942;-76
2021/06/23 01:19:26;;;;;;;3.77;3.47;;;15.70;99.90;;;;;;4879814;29;21095;-85
2021/06/23 01:21:52;;;;;;;3.63;3.33;;;15.80;99.90;;;;;;4910952;29;20416;-76
2021/06/23 01:24:18;;;;;;;3.73;3.43;;;15.90;99.90;;;;;;4894474;29;20408;-77
2021/06/23 01:26:43;;;;;;;4.97;4.20;;;15.90;99.90;;;;;;4894516;29;20457;-78
2021/06/23 01:29:09;;;;;;;4.40;4.10;;;15.90;99.90;;;;;;4877175;29;21044;-80
2021/06/23 01:31:48;;;;;;;4.68;4.10;;;15.90;99.90;;;;;;4893805;29;20437;-77
2021/06/23 01:34:15;;;;;;;5.32;3.90;;;15.90;99.90;;;;;;4908284;29;20443;-77
2021/06/23 01:36:41;;;;;;;4.35;3.95;;;15.90;99.90;;;;;;4910716;29;20428;-78
2021/06/23 01:39:07;;;;;;;4.33;4.03;;;16.00;99.90;;;;;;4890124;29;20450;-76
2021/06/23 01:41:35;;;;;;;4.43;4.03;;;16.00;99.90;;;;;;4887066;29;20426;-77
2021/06/23 01:44:01;;;;;;;3.92;3.63;;;16.10;99.90;;;;;;4876859;29;20908;-79
2021/06/23 01:46:27;;;;;;;4.87;4.40;;;16.20;99.90;;;;;;4870083;29;20469;-77
2021/06/23 01:48:56;;;;;;;4.05;3.70;;;16.10;99.90;;;;;;4892593;29;20394;-82
2021/06/23 01:51:22;;;;;;;4.80;3.88;;;16.10;99.90;;;;;;4888184;29;20393;-78
2021/06/23 01:53:51;;;;;;;5.15;4.40;;;16.20;99.90;;;;;;4889497;29;20486;-78
2021/06/23 01:56:17;;;;;;;4.50;4.10;;;16.20;99.90;;;;;;4879536;29;20443;-77
2021/06/23 01:58:43;;;;;;;4.23;3.83;;;16.20;99.90;;;;;;4890684;29;20406;-77
2021/06/23 02:01:46;;;;;;;4.38;3.97;;;16.30;99.90;;;;;;4890352;29;20607;-77
2021/06/23 02:04:33;;;;;;;4.05;3.65;;;16.40;99.90;;;;;;4881563;29;20438;-78
2021/06/23 02:07:16;;;;;;;4.47;3.72;;;16.40;99.90;;;;;;4917573;29;20417;-80
2021/06/23 02:10:08;;;;;;;3.78;3.47;;;16.40;99.90;;;;;;4890742;29;20398;-80
2021/06/23 02:12:56;;;;;;;3.95;3.65;;;16.50;99.90;;;;;;4888343;29;20401;-79
2021/06/23 02:15:22;;;;;;;3.47;3.17;;;16.50;99.90;;;;;;4925544;29;20752;-79
2021/06/23 02:17:52;;;;;;;5.60;5.10;;;16.50;99.90;;;;;;4893603;29;20397;-80
2021/06/23 02:20:42;;;;;;;4.87;4.47;;;16.50;99.90;;;;;;4875901;29;20434;-77
2021/06/23 02:23:17;;;;;;;5.75;3.75;;;16.50;99.90;;;;;;4892284;29;20410;-77
2021/06/23 02:25:43;;;;;;;3.90;3.50;;;16.50;99.90;;;;;;4875439;29;20425;-80
2021/06/23 02:28:18;;;;;;;4.05;3.75;;;16.50;99.90;;;;;;4888572;29;20421;-81
2021/06/23 02:30:43;;;;;;;3.80;3.50;;;16.50;99.90;;;;;;4873404;29;20420;-80
2021/06/23 02:33:10;;;;;;;4.05;3.65;;;16.50;99.90;;;;;;4893466;29;20465;-77
2021/06/23 02:35:39;;;;;;;3.92;3.63;;;16.50;99.90;;;;;;4894066;29;20414;-83
2021/06/23 02:38:14;;;;;;;3.88;3.53;;;16.50;99.90;;;;;;4883373;29;20409;-78
2021/06/23 02:40:41;;;;;;;4.47;4.07;;;16.50;99.90;;;;;;4893350;29;20417;-85
2021/06/23 02:43:07;;;;;;;3.50;3.20;;;16.50;99.90;;;;;;4888324;29;20417;-78
2021/06/23 02:45:33;;;;;;;3.55;3.25;;;16.60;99.90;;;;;;4909654;29;20420;-78
2021/06/23 02:47:59;;;;;;;3.58;3.28;;;16.50;99.90;;;;;;4884322;29;20427;-83
2021/06/23 02:51:13;;;;;;;4.22;3.78;;;16.60;99.90;;;;;;4888938;29;20399;-78
2021/06/23 02:53:39;;;;;;;3.58;3.28;;;16.60;99.90;;;;;;4878028;29;20467;-80
2021/06/23 02:56:05;;;;;;;4.30;3.90;;;16.50;99.90;;;;;;4895823;29;20433;-79
2021/06/23 02:58:46;;;;;;;3.90;3.60;;;16.60;99.90;;;;;;4884706;29;20486;-83
2021/06/23 03:01:12;;;;;;;3.90;3.60;;;16.50;99.90;;;;;;4876683;29;20397;-79
2021/06/23 03:03:42;;;;;;;4.30;3.90;;;16.50;99.90;;;;;;4879833;29;20417;-78
2021/06/23 03:06:08;;;;;;;3.97;3.67;;;16.60;99.90;;;;;;4877644;29;20435;-77
2021/06/23 03:08:34;;;;;;;3.60;3.30;;;16.60;99.90;;;;;;4894620;29;20494;-79
2021/06/23 03:11:02;;;;;;;4.15;3.75;;;16.60;99.90;;;;;;4893201;29;20964;-77
2021/06/23 03:13:56;;;;;;;3.10;2.90;;;16.60;99.90;;;;;;4863589;29;20405;-77
2021/06/23 03:16:32;;;;;;;3.90;3.60;;;16.70;99.90;;;;;;4923847;29;20405;-77
2021/06/23 03:18:58;;;;;;;4.22;3.28;;;16.70;99.90;;;;;;4891535;29;20399;-77
2021/06/23 03:21:24;;;;;;;3.47;3.17;;;16.70;99.90;;;;;;4902498;29;20405;-77
2021/06/23 03:23:50;;;;;;;4.15;3.75;;;16.70;99.90;;;;;;4922684;29;20466;-78
2021/06/23 03:26:21;;;;;;;3.38;3.10;;;16.60;99.90;;;;;;4900301;29;20438;-78
2021/06/23 03:28:51;;;;;;;4.40;4.00;;;16.50;99.90;;;;;;4875904;29;20427;-79
2021/06/23 03:31:17;;;;;;;4.13;3.70;;;16.40;99.90;;;;;;4893245;29;20408;-77
2021/06/23 03:33:51;;;;;;;4.77;4.27;;;16.40;99.90;;;;;;4903742;29;20970;-81
2021/06/23 03:36:26;;;;;;;4.22;3.92;;;16.30;99.90;;;;;;4888081;29;20430;-77
2021/06/23 03:38:52;;;;;;;3.60;3.30;;;16.30;99.90;;;;;;4894329;29;20440;-76
2021/06/23 03:41:18;;;;;;;3.53;3.22;;;16.20;99.90;;;;;;4877266;29;20453;-78
2021/06/23 03:43:46;;;;;;;4.22;3.83;;;16.20;99.90;;;;;;4887058;29;20730;-79
2021/06/23 03:46:12;;;;;;;5.50;4.00;;;16.10;99.90;;;;;;4877256;29;20414;-78
2021/06/23 03:48:41;;;;;;;4.20;3.75;;;16.10;99.90;;;;;;4905086;29;21234;-79
2021/06/23 03:51:11;;;;;;;4.27;3.90;;;16.10;99.90;;;;;;4907152;29;20429;-86
2021/06/23 03:53:37;;;;;;;4.25;3.85;;;16.00;99.90;;;;;;4906814;29;20434;-78
2021/06/23 03:56:06;;;;;;;5.17;4.60;;;16.00;99.90;;;;;;4892870;29;20432;-78
2021/06/23 03:58:32;;;;;;;4.88;4.32;;;16.00;99.90;;;;;;4899294;29;20409;-79
2021/06/23 04:00:58;;;;;;;4.28;3.88;;;16.00;99.90;;;;;;4905462;29;20930;-77
2021/06/23 04:03:58;;;;;;;4.57;4.18;;;16.00;99.90;;;;;;4895939;29;20474;-81
2021/06/23 04:06:38;;;;;;;4.93;4.35;;;16.10;99.90;;;;;;4892389;29;20415;-82
2021/06/23 04:09:06;;;;;;;3.92;3.63;;;16.20;99.90;;;;;;4907042;29;20498;-79
2021/06/23 04:11:32;;;;;;;4.32;4.03;;;16.20;99.90;;;;;;4908167;29;20937;-79
2021/06/23 04:13:59;;;;;;;4.80;4.40;;;16.20;99.90;;;;;;4907906;29;20919;-80
2021/06/23 04:16:27;;;;;;;5.00;4.45;;;16.20;99.90;;;;;;4889784;29;20425;-81
2021/06/23 04:18:53;;;;;;;4.90;4.40;;;16.30;99.90;;;;;;4904270;29;20397;-80
2021/06/23 04:21:19;;;;;;;4.57;4.18;;;16.40;99.90;;;;;;4891469;29;20403;-79
2021/06/23 04:23:47;;;;;;;5.22;4.72;;;16.60;99.90;;;;;;4905190;29;20948;-79
2021/06/23 04:26:14;;;;;;;5.15;4.72;;;16.70;99.90;;;;;;4874199;29;20436;-80
2021/06/23 04:28:39;;;;;;;4.85;4.35;;;16.80;99.90;;;;;;4888784;29;20469;-79
2021/06/23 04:31:06;;;;;;;4.93;4.43;;;16.80;99.90;;;;;;4892412;29;20457;-79
2021/06/23 04:33:32;;;;;;;3.90;3.50;;;16.90;99.90;;;;;;4879284;29;20393;-79
2021/06/23 04:36:06;;;;;;;4.28;3.88;;;17.00;99.90;;;;;;4896637;29;20460;-79
2021/06/23 04:38:33;;;;;;;3.92;3.63;;;17.20;99.90;;;;;;4892381;29;20411;-79
2021/06/23 04:40:59;;;;;;;5.28;3.58;;;17.20;99.90;;;;;;4885763;29;20401;-84
2021/06/23 04:43:27;;;;;;;3.67;3.37;;;17.30;99.90;;;;;;4877709;29;20405;-77
2021/06/23 04:45:54;;;;;;;3.67;3.33;;;17.40;99.90;;;;;;4892027;29;20409;-81
2021/06/23 04:48:22;;;;;;;3.92;3.63;;;17.40;99.90;;;;;;4889582;29;20429;-81
2021/06/23 04:50:48;;;;;;;4.35;3.38;;;17.50;99.90;;;;;;4891469;29;20920;-78
2021/06/23 04:53:18;;;;;;;3.47;3.17;;;17.50;99.90;;;;;;4893350;29;20413;-80
2021/06/23 04:55:44;;;;;;;4.75;3.30;;;17.50;99.90;;;;;;4862302;29;20854;-82
2021/06/23 04:58:15;;;;;;;3.72;3.42;;;17.60;99.90;;;;;;4897591;29;21019;-80
2021/06/23 05:00:42;;;;;;;3.40;3.10;;;17.70;99.90;;;;;;4886256;29;20442;-83
2021/06/23 05:03:14;;;;;;;3.97;3.25;;;17.80;99.90;;;;;;4903748;29;20421;-78
2021/06/23 05:05:40;;;;;;;3.20;3.00;;;17.90;99.90;;;;;;4864051;29;20409;-84
2021/06/23 05:08:06;;;;;;;3.63;3.33;;;18.00;99.90;;;;;;4890028;29;20419;-80
2021/06/23 05:10:32;;;;;;;3.42;3.13;;;18.10;99.90;;;;;;4908843;29;20401;-78
2021/06/23 05:12:58;;;;;;;3.28;3.00;;;18.20;99.90;;;;;;4908661;29;20410;-78
2021/06/23 05:15:23;;;;;;;3.60;3.30;;;18.30;99.90;;;;;;4877397;29;20410;-80
2021/06/23 05:17:49;;;;;;;3.20;2.90;;;18.40;99.90;;;;;;4906889;29;20409;-76
2021/06/23 05:20:15;;;;;;;3.72;3.42;;;18.50;99.90;;;;;;4909252;29;20455;-78
2021/06/23 05:22:41;;;;;;;4.67;2.63;;;18.60;99.90;;;;;;4896117;29;20421;-76
2021/06/23 05:25:07;;;;;;;3.20;2.90;;;18.70;99.90;;;;;;4890631;29;20414;-81
2021/06/23 05:27:32;;;;;;;3.28;2.97;;;18.80;99.90;;;;;;4903501;29;20868;-82
2021/06/23 05:29:58;;;;;;;3.17;2.87;;;18.90;99.90;;;;;;4908270;29;20475;-79
2021/06/23 05:32:24;;;;;;;3.50;3.20;;;19.00;99.90;;;;;;4881681;29;20799;-81
2021/06/23 05:34:50;;;;;;;4.47;3.20;;;19.00;99.90;;;;;;4907944;29;20488;-80
2021/06/23 05:37:15;;;;;;;3.25;2.92;;;19.10;99.90;;;;;;4890298;29;20428;-83
2021/06/23 05:39:41;;;;;;;3.35;3.03;;;19.20;99.90;;;;;;4905229;29;20963;-76
2021/06/23 05:42:07;;;;;;;3.60;3.30;;;19.30;99.90;;;;;;4874666;29;20943;-76
2021/06/23 05:44:33;;;;;;;3.30;2.97;;;19.40;99.90;;;;;;4874917;29;20784;-76
2021/06/23 05:46:59;;;;;;;2.97;2.77;;;19.50;99.90;;;;;;4884052;29;20792;-77
2021/06/23 05:49:24;;;;;;;3.40;3.10;;;19.50;99.90;;;;;;4910558;29;20403;-78
2021/06/23 05:51:50;;;;;;;4.00;3.60;;;19.60;99.90;;;;;;4873222;29;20403;-77
2021/06/23 05:54:16;;;;;;;3.53;3.23;;;19.70;99.90;;;;;;4891623;29;20416;-79
2021/06/23 05:56:41;;;;;;;3.20;2.90;;;19.70;99.90;;;;;;4881452;29;20811;-78
2021/06/23 05:59:07;;;;;;;3.20;3.00;;;19.90;99.90;;;;;;4896020;29;20416;-78
2021/06/23 06:01:33;;;;;;;3.90;3.50;;;19.80;99.90;;;;;;4880454;29;20492;-80
2021/06/23 06:03:58;;;;;;;3.90;3.50;;;19.90;99.90;;;;;;4880436;29;20433;-82
2021/06/23 06:06:24;;;;;;;4.00;3.55;;;19.90;99.90;;;;;;4892582;29;20419;-79
2021/06/23 06:08:50;;;;;;;3.73;3.43;;;20.00;99.90;;;;;;4908749;29;20417;-76
2021/06/23 06:11:15;;;;;;;4.28;3.88;;;20.00;99.90;;;;;;4907206;29;20436;-82
2021/06/23 06:13:41;;;;;;;3.97;3.57;;;19.90;99.90;;;;;;4896214;29;20853;-82
2021/06/23 06:16:06;;;;;;;3.90;3.60;;;20.00;99.90;;;;;;4895732;29;20795;-78
2021/06/23 06:18:32;;;;;;;3.97;3.67;;;20.10;99.90;;;;;;4878884;29;20777;-77
2021/06/23 06:20:58;;;;;;;5.55;3.30;;;20.30;99.90;;;;;;4885679;29;20799;-78
2021/06/23 06:23:27;;;;;;;4.23;3.83;;;20.40;99.90;;;;;;4912194;29;20456;-80
2021/06/23 06:25:52;;;;;;;4.40;4.00;;;20.50;99.90;;;;;;4898022;29;20417;-79
2021/06/23 06:28:18;;;;;;;3.40;3.13;;;20.50;99.90;;;;;;4892908;29;20600;-77
2021/06/23 06:30:44;;;;;;;3.92;3.60;;;20.70;99.90;;;;;;4892304;29;20418;-76
2021/06/23 06:33:10;;;;;;;4.60;3.77;;;20.90;99.90;;;;;;4892290;29;21070;-83
2021/06/23 06:35:35;;;;;;;2.80;2.60;;;21.10;99.90;;;;;;4877529;29;20792;-80
2021/06/23 06:38:01;;;;;;;2.80;2.60;;;21.10;99.90;;;;;;4900619;29;20413;-77
2021/06/23 06:40:27;;;;;;;2.90;2.70;;;21.30;99.90;;;;;;4889366;29;20416;-77
2021/06/23 06:42:53;;;;;;;3.33;2.90;;;21.50;99.90;;;;;;4894324;29;20405;-79
2021/06/23 06:45:19;;;;;;;2.65;2.45;;;21.70;99.90;;;;;;4873029;29;20413;-77
2021/06/23 06:47:46;;;;;;;3.63;2.88;;;21.60;99.90;;;;;;4898647;29;20449;-78
2021/06/23 06:50:12;;;;;;;3.40;2.50;;;21.70;99.90;;;;;;4895937;29;20929;-77
2021/06/23 06:52:38;;;;;;;2.45;2.25;;;21.70;99.90;;;;;;4909395;29;20442;-79
2021/06/23 06:55:05;;;;;;;3.70;2.47;;;22.00;99.90;;;;;;4895545;29;20899;-83
2021/06/23 06:57:31;;;;;;;2.50;2.30;;;22.20;99.90;;;;;;4877896;29;20410;-79
2021/06/23 06:59:56;;;;;;;2.58;2.10;;;22.40;99.90;;;;;;4892771;29;20795;-82
2021/06/23 07:02:22;;;;;;;2.30;2.10;;;22.30;99.90;;;;;;4895119;29;20465;-78
2021/06/23 07:04:48;;;;;;;2.40;2.20;;;22.40;99.90;;;;;;4911126;29;20397;-82
2021/06/23 07:07:13;;;;;;;1.87;1.77;;;22.60;99.90;;;;;;4909731;29;20431;-81
2021/06/23 07:09:39;;;;;;;1.95;1.77;;;22.80;99.90;;;;;;4894242;29;20398;-82
2021/06/23 07:12:05;;;;;;;1.70;1.60;;;23.00;99.90;;;;;;4928047;29;20915;-81
2021/06/23 07:14:31;;;;;;;7.88;2.33;;;23.20;99.90;;;;;;4891355;29;20482;-81
2021/06/23 07:16:56;;;;;;;2.55;2.20;;;23.20;99.90;;;;;;4908430;29;20829;-80
2021/06/23 07:19:22;;;;;;;2.30;2.10;;;23.20;99.90;;;;;;4894106;29;20401;-81
2021/06/23 07:21:48;;;;;;;4.67;2.63;;;23.20;99.90;;;;;;4894575;29;20418;-79
2021/06/23 07:24:18;;;;;;;3.15;1.85;;;23.30;99.90;;;;;;4894758;29;20448;-83
2021/06/23 07:26:45;;;;;;;2.43;2.23;;;23.40;99.90;;;;;;4903130;29;20809;-79
2021/06/23 07:29:11;;;;;;;2.20;2.00;;;23.60;99.90;;;;;;4893067;29;20411;-79
2021/06/23 07:31:43;;;;;;;7.10;2.75;;;23.80;99.90;;;;;;4911026;29;20401;-79
2021/06/23 07:36:41;;;;;;;4.20;2.45;;;23.70;99.90;;;;;;4919436;29;20401;-79
2021/06/23 07:39:09;;;;;;;2.22;2.03;;;23.70;99.90;;;;;;4905899;29;20411;-78
2021/06/23 07:41:36;;;;;;;4.93;2.70;;;23.80;99.90;;;;;;4892249;29;20442;-81
2021/06/23 07:44:02;;;;;;;3.90;2.42;;;23.80;99.90;;;;;;4875786;29;20407;-79
2021/06/23 07:46:31;;;;;;;2.20;2.00;;;23.80;99.90;;;;;;4869284;29;20401;-79
2021/06/23 07:48:57;;;;;;;2.38;2.17;;;23.90;99.90;;;;;;4908371;29;20803;-80
2021/06/23 07:51:38;;;;;;;2.45;2.25;;;24.00;99.90;;;;;;4880750;29;20910;-80
2021/06/23 08:10:08;;;;;;;2.45;2.10;;;24.90;99.90;;;;;;4896212;29;20744;-77
2021/06/23 08:12:45;;;;;;;3.33;2.10;;;25.10;99.90;;;;;;4895708;29;20416;-78
2021/06/23 08:15:11;;;;;;;2.17;1.97;;;25.20;99.90;;;;;;4871617;29;20445;-78
2021/06/23 08:17:37;;;;;;;3.40;2.30;;;25.30;99.90;;;;;;4856194;29;20415;-78
2021/06/23 08:20:04;;;;;;;2.40;2.20;;;25.00;99.90;;;;;;4881131;29;20401;-80
2021/06/23 08:22:29;;;;;;;2.20;2.05;;;25.10;99.90;;;;;;4901691;29;20399;-80
2021/06/23 08:24:55;;;;;;;2.15;1.90;;;25.10;99.90;;;;;;4871318;29;20409;-77
2021/06/23 08:27:21;;;;;;;2.10;1.95;;;25.00;99.90;;;;;;4900329;29;20511;-77
2021/06/23 08:29:46;;;;;;;2.13;1.93;;;24.70;99.90;;;;;;4876925;29;20421;-81
2021/06/23 08:32:12;;;;;;;2.07;1.97;;;24.70;99.90;;;;;;4888560;29;20489;-82
2021/06/23 08:34:38;;;;;;;2.15;2.00;;;24.90;99.90;;;;;;4865796;29;20426;-77
2021/06/23 08:37:04;;;;;;;2.22;2.03;;;25.10;99.90;;;;;;4874204;29;20974;-79
2021/06/23 08:39:29;;;;;;;2.40;1.95;;;24.90;99.90;;;;;;4892142;29;20940;-77
2021/06/23 08:41:55;;;;;;;1.83;1.73;;;24.90;99.90;;;;;;4872919;29;20411;-80
2021/06/23 08:44:22;;;;;;;2.20;2.00;;;24.90;99.90;;;;;;4889019;29;20409;-79
2021/06/23 08:46:48;;;;;;;2.33;2.15;;;25.10;99.90;;;;;;4896637;29;20478;-76
2021/06/23 08:49:14;;;;;;;3.10;2.80;;;25.10;99.90;;;;;;4902995;29;20471;-79
2021/06/23 08:51:40;;;;;;;2.23;2.03;;;25.00;99.90;;;;;;4882423;29;20756;-77
2021/06/23 08:54:05;;;;;;;2.20;2.00;;;25.10;99.90;;;;;;4870852;29;20833;-78
2021/06/23 08:56:31;;;;;;;2.10;2.00;;;24.80;99.90;;;;;;4905491;29;20447;-81
2021/06/23 08:58:57;;;;;;;2.10;1.90;;;24.60;99.90;;;;;;4901085;29;21064;-80
2021/06/23 09:01:22;;;;;;;4.20;2.00;;;24.50;99.90;;;;;;4903646;29;20398;-81
2021/06/23 09:04:05;;;;;;;1.83;1.73;;;24.70;99.90;;;;;;4902220;29;20805;-79
2021/06/23 09:06:49;;;;;;;1.95;1.85;;;24.90;99.90;;;;;;4888561;29;20400;-79
2021/06/23 09:09:30;;;;;;;1.85;1.75;;;25.00;99.90;;;;;;4885906;29;20481;-81
2021/06/23 09:12:00;;;;;;;1.58;1.48;;;25.30;99.90;;;;;;4921146;29;20401;-83
2021/06/23 09:14:29;;;;;;;1.90;1.80;;;25.40;99.90;;;;;;4882867;29;20428;-79
2021/06/23 09:17:11;;;;;;;1.63;1.52;;;25.20;99.90;;;;;;4877913;29;20667;-77
2021/06/23 09:19:40;;;;;;;2.45;1.83;;;25.30;99.90;;;;;;4891672;29;20401;-78
2021/06/23 09:22:32;;;;;;;5.18;1.90;;;25.40;99.90;;;;;;4906000;29;20408;-80
2021/06/23 09:24:58;;;;;;;5.38;1.80;;;25.30;99.90;;;;;;4922649;29;20448;-79
2021/06/23 09:27:28;;;;;;;1.70;1.60;;;25.40;99.90;;;;;;4890305;29;20417;-78
2021/06/23 09:29:53;;;;;;;1.70;1.60;;;25.40;99.90;;;;;;4902134;29;20919;-78
2021/06/23 09:32:20;;;;;;;1.77;1.67;;;25.50;99.90;;;;;;4878971;29;20400;-78
2021/06/23 09:34:47;;;;;;;1.70;1.60;;;25.50;99.90;;;;;;4894703;29;20417;-78
2021/06/23 09:37:32;;;;;;;2.08;1.88;;;25.50;99.90;;;;;;4895281;29;20899;-77
2021/06/23 09:40:18;;;;;;;2.25;1.80;;;25.70;99.90;;;;;;4884389;29;20413;-77
2021/06/23 09:42:51;;;;;;;2.78;1.98;;;25.80;99.90;;;;;;4873276;29;20486;-77
2021/06/23 09:45:18;;;;;;;2.33;1.80;;;25.90;99.90;;;;;;4909735;29;20401;-79
2021/06/23 09:47:45;;;;;;;1.90;1.80;;;26.00;99.90;;;;;;4894337;29;20427;-80
2021/06/23 09:50:11;;;;;;;1.95;1.80;;;26.10;99.90;;;;;;4896604;29;20401;-80
2021/06/23 09:52:49;;;;;;;2.88;2.25;;;25.80;99.90;;;;;;4881694;29;20409;-79
2021/06/23 09:55:17;;;;;;;2.00;1.70;;;25.70;99.90;;;;;;4896331;29;20893;-78
2021/06/23 09:58:06;;;;;;;2.70;1.70;;;25.80;99.90;;;;;;4908798;29;20409;-79
2021/06/23 10:00:33;;;;;;;2.20;2.00;;;26.00;99.90;;;;;;4925356;29;20408;-79
2021/06/23 10:03:03;;;;;;;1.80;1.70;;;26.10;99.90;;;;;;4888380;29;20414;-79
2021/06/23 10:05:29;;;;;;;5.18;1.60;;;26.50;99.90;;;;;;4888677;29;20409;-78
2021/06/23 10:07:55;;;;;;;1.83;1.73;;;26.70;99.90;;;;;;4891340;29;21009;-78
2021/06/23 10:10:22;;;;;;;1.80;1.70;;;27.00;99.90;;;;;;4892905;29;20403;-78
2021/06/23 10:12:54;;;;;;;2.85;1.73;;;27.50;99.90;;;;;;4908426;29;21050;-79
2021/06/23 10:15:21;;;;;;;2.00;1.80;;;27.90;99.90;;;;;;4910778;29;20396;-79
2021/06/23 10:17:47;;;;;;;1.67;1.58;;;28.20;99.90;;;;;;4906947;29;20415;-78
2021/06/23 10:20:14;;;;;;;2.60;1.60;;;28.30;99.90;;;;;;4890364;29;20415;-78
2021/06/23 10:22:43;;;;;;;2.20;1.95;;;28.30;99.90;;;;;;4893605;29;20494;-80
2021/06/23 10:25:11;;;;;;;2.10;1.88;;;28.10;99.90;;;;;;4886898;29;20409;-79
2021/06/23 10:27:40;;;;;;;2.10;1.90;;;28.00;99.90;;;;;;4906986;29;20442;-79
2021/06/23 10:30:07;;;;;;;2.53;1.73;;;27.80;99.90;;;;;;4911707;29;20679;-78
2021/06/23 10:32:32;;;;;;;1.65;1.55;;;27.70;99.90;;;;;;4881140;29;20479;-80
2021/06/23 10:34:58;;;;;;;3.77;1.93;;;27.70;99.90;;;;;;4896342;29;20413;-78
2021/06/23 10:37:24;;;;;;;1.90;1.80;;;27.60;99.90;;;;;;4894300;29;20413;-78
2021/06/23 10:39:49;;;;;;;1.67;1.58;;;27.20;99.90;;;;;;4897076;29;20413;-78
2021/06/23 10:42:15;;;;;;;1.85;1.75;;;26.90;99.90;;;;;;4894353;29;20464;-80
2021/06/23 10:44:47;;;;;;;5.40;2.17;;;26.70;99.90;;;;;;4893427;29;20410;-77
2021/06/23 10:47:37;;;;;;;2.53;2.13;;;26.80;99.90;;;;;;4883981;29;20524;-78
2021/06/23 10:50:22;;;;;;;4.80;2.08;;;26.70;99.90;;;;;;4892460;29;20397;-78
2021/06/23 10:52:48;;;;;;;2.13;1.73;;;26.40;99.90;;;;;;4908295;29;20829;-78
2021/06/23 10:55:13;;;;;;;1.88;1.70;;;26.50;99.90;;;;;;4906500;29;20395;-77
2021/06/23 10:57:40;;;;;;;1.60;1.50;;;26.60;99.90;;;;;;4922698;29;20423;-79
2021/06/23 11:00:18;;;;;;;1.70;1.60;;;26.70;99.90;;;;;;4898634;29;20506;-78
2021/06/23 11:02:46;;;;;;;2.28;2.08;;;26.90;99.90;;;;;;4906045;29;20400;-78
2021/06/23 11:05:22;;;;;;;1.85;1.75;;;26.80;99.90;;;;;;4887073;29;20408;-79
2021/06/23 11:07:55;;;;;;;2.97;1.73;;;26.80;99.90;;;;;;4892922;29;20465;-79
2021/06/23 11:10:27;;;;;;;1.85;1.75;;;26.70;99.90;;;;;;4894125;29;20445;-77
2021/06/23 11:12:56;;;;;;;2.13;1.90;;;26.80;99.90;;;;;;4894056;29;20429;-77
2021/06/23 11:15:27;;;;;;;2.55;2.00;;;26.60;99.90;;;;;;4904052;29;20444;-78
2021/06/23 11:17:54;;;;;;;2.30;1.77;;;26.40;99.90;;;;;;4919964;29;20410;-80
2021/06/23 11:20:20;;;;;;;1.70;1.60;;;26.20;99.90;;;;;;4885870;29;20965;-77
2021/06/23 11:22:49;;;;;;;1.83;1.70;;;26.30;99.90;;;;;;4922346;29;20413;-77
2021/06/23 11:25:33;;;;;;;1.77;1.67;;;26.40;99.90;;;;;;4895691;29;20964;-76
2021/06/23 11:28:07;;;;;;;1.63;1.50;;;26.50;99.90;;;;;;4908221;29;20467;-77
2021/06/23 11:30:51;;;;;;;2.13;1.92;;;26.70;99.90;;;;;;4891999;29;20399;-80
2021/06/23 11:33:28;;;;;;;1.80;1.70;;;27.00;99.90;;;;;;4902328;29;20421;-78
2021/06/23 11:35:54;;;;;;;2.03;1.90;;;27.20;99.90;;;;;;4923572;29;20563;-77
2021/06/23 11:38:20;;;;;;;1.80;1.70;;;27.20;99.90;;;;;;4922483;29;21160;-79
2021/06/23 11:40:45;;;;;;;1.60;1.50;;;27.10;99.90;;;;;;4902877;29;20436;-77
2021/06/23 11:43:11;;;;;;;1.88;1.77;;;27.20;99.90;;;;;;4892095;29;20408;-77
2021/06/23 11:45:37;;;;;;;2.53;1.80;;;27.20;99.90;;;;;;4874019;29;20788;-78
2021/06/23 11:48:03;;;;;;;2.40;1.80;;;27.00;99.90;;;;;;4874874;29;20499;-81
2021/06/23 11:50:28;;;;;;;1.75;1.65;;;27.00;99.90;;;;;;4871727;29;20390;-77
2021/06/23 11:52:54;;;;;;;1.60;1.50;;;26.70;99.90;;;;;;4888106;29;20412;-79
2021/06/23 11:55:26;;;;;;;2.20;1.67;;;26.60;99.90;;;;;;4906182;29;20405;-79
2021/06/23 11:57:53;;;;;;;2.50;1.85;;;26.60;99.90;;;;;;4900820;29;20410;-78
2021/06/23 12:00:19;;;;;;;1.90;1.75;;;26.60;99.20;;;;;;4889575;29;20430;-78
2021/06/23 12:02:45;;;;;;;1.50;1.40;;;26.40;99.90;;;;;;4875796;29;20841;-78
2021/06/23 12:05:10;;;;;;;1.70;1.60;;;26.40;99.90;;;;;;4880343;29;20405;-79
2021/06/23 12:07:36;;;;;;;2.20;1.98;;;26.40;99.90;;;;;;4888901;29;20946;-79
2021/06/23 12:10:03;;;;;;;2.65;2.00;;;26.20;99.20;;;;;;4888322;29;20389;-79
2021/06/23 12:12:29;;;;;;;2.30;1.60;;;26.00;99.90;;;;;;4860746;29;21270;-79
2021/06/23 12:14:55;;;;;;;1.60;1.50;;;26.00;99.90;;;;;;4889984;29;20415;-80
2021/06/23 12:17:20;;;;;;;1.80;1.70;;;25.90;99.90;;;;;;4893245;29;20443;-79
2021/06/23 12:19:47;;;;;;;1.67;1.57;;;25.90;99.90;;;;;;4891338;29;20948;-79
2021/06/23 12:22:13;;;;;;;2.30;2.10;;;25.70;99.90;;;;;;4873176;29;20986;-80
2021/06/23 12:24:39;;;;;;;3.30;2.42;;;25.40;99.90;;;;;;4877206;29;20409;-78
2021/06/23 12:27:05;;;;;;;1.70;1.60;;;25.30;99.90;;;;;;4890463;29;20414;-78
2021/06/23 12:29:30;;;;;;;2.13;1.80;;;25.30;99.90;;;;;;4900659;29;20899;-79
2021/06/23 12:31:56;;;;;;;1.73;1.63;;;25.30;99.90;;;;;;4890309;29;20914;-78
2021/06/23 12:34:22;;;;;;;1.85;1.75;;;25.30;99.90;;;;;;4906570;29;20922;-79
2021/06/23 12:36:47;;;;;;;1.73;1.63;;;25.20;99.90;;;;;;4907814;29;20401;-78
2021/06/23 12:39:13;;;;;;;1.70;1.60;;;25.30;99.90;;;;;;4908336;29;20409;-79
2021/06/23 12:41:39;;;;;;;1.90;1.80;;;25.40;99.90;;;;;;4903324;29;20402;-81
2021/06/23 12:44:05;;;;;;;1.80;1.70;;;25.40;99.90;;;;;;4889718;29;20401;-78
2021/06/23 12:46:31;;;;;;;1.75;1.65;;;25.40;99.90;;;;;;4874106;29;20478;-78
2021/06/23 12:48:57;;;;;;;2.35;1.73;;;25.40;99.90;;;;;;4888279;29;20481;-78
2021/06/23 12:51:22;;;;;;;2.05;1.83;;;25.60;99.90;;;;;;4881507;29;20413;-78
2021/06/23 12:53:48;;;;;;;1.70;1.60;;;25.60;99.90;;;;;;4907847;29;20469;-78
2021/06/23 12:56:14;;;;;;;1.83;1.73;;;25.70;99.90;;;;;;4903644;29;20408;-77
2021/06/23 12:58:39;;;;;;;1.70;1.60;;;25.70;99.90;;;;;;4876828;29;20405;-77
2021/06/23 13:01:05;;;;;;;1.73;1.63;;;25.60;99.90;;;;;;4902841;29;20787;-79
2021/06/23 13:03:31;;;;;;;1.83;1.73;;;25.40;99.90;;;;;;4888490;29;20415;-78
2021/06/23 13:06:00;;;;;;;2.63;1.90;;;25.20;99.90;;;;;;4903775;29;20843;-78
2021/06/23 13:08:26;;;;;;;2.10;1.88;;;25.00;99.90;;;;;;4887992;29;20425;-78
2021/06/23 13:10:52;;;;;;;1.85;1.75;;;25.10;99.90;;;;;;4928347;29;20429;-80
2021/06/23 13:13:18;;;;;;;1.63;1.53;;;25.00;99.90;;;;;;4879161;29;21141;-79